createdAt,value
2023-04-17T00:01:57.597Z,98353.45
2023-04-17T00:04:59.295Z,98350.16
2023-04-17T00:08:01.743Z,98351.73
2023-04-17T00:11:07.926Z,98351.96
2023-04-17T00:14:10.386Z,98350.16
2023-04-17T00:17:12.270Z,98352.36
2023-04-17T00:20:14.244Z,98351.42
2023-04-17T00:23:15.909Z,98349.92
2023-04-17T00:26:18.948Z,98345.20
2023-04-17T00:29:21.023Z,98343.95
2023-04-17T00:32:22.784Z,98350.70
2023-04-17T00:35:24.532Z,98349.45
2023-04-17T00:38:26.205Z,98348.42
2023-04-17T00:41:27.969Z,98346.61
2023-04-17T00:44:29.671Z,98350.83
2023-04-17T00:47:32.438Z,98352.80
2023-04-17T00:50:35.312Z,98354.59
2023-04-17T00:53:37.349Z,98358.75
2023-04-17T00:56:39.150Z,98361.80
2023-04-17T00:59:41.257Z,98361.14
2023-04-17T01:02:44.256Z,98354.44
2023-04-17T01:05:49.574Z,98352.46
2023-04-17T01:08:51.754Z,98359.73
2023-04-17T01:11:53.509Z,98360.42
2023-04-17T01:14:56.665Z,98353.98
2023-04-17T01:17:58.746Z,98356.48
2023-04-17T01:21:02.655Z,98352.84
2023-04-17T01:24:04.988Z,98352.73
2023-04-17T01:27:07.183Z,98350.90
2023-04-17T01:30:10.416Z,98345.89
2023-04-17T01:33:18.725Z,98346.74
2023-04-17T01:36:20.884Z,98342.17
2023-04-17T01:39:22.980Z,98342.55
2023-04-17T01:42:25.064Z,98345.20
2023-04-17T01:45:26.808Z,98338.27
2023-04-17T01:48:28.511Z,98340.45
2023-04-17T01:51:30.623Z,98339.33
2023-04-17T01:54:32.903Z,98341.13
2023-04-17T01:57:34.678Z,98342.92
2023-04-17T02:00:36.405Z,98342.21
2023-04-17T02:03:38.345Z,98341.44
2023-04-17T02:06:40.123Z,98344.48
2023-04-17T02:09:41.807Z,98339.50
2023-04-17T02:12:43.473Z,98341.06
2023-04-17T02:15:45.488Z,98344.09
2023-04-17T02:18:49.479Z,98346.34
2023-04-17T02:21:51.131Z,98349.84
2023-04-17T02:24:52.778Z,98350.53
2023-04-17T02:27:55.658Z,98347.53
2023-04-17T02:30:57.427Z,98343.21
2023-04-17T02:33:59.152Z,98345.63
2023-04-17T02:37:01.669Z,98345.31
2023-04-17T02:40:06.824Z,98344.92
2023-04-17T02:43:08.590Z,98347.73
2023-04-17T02:46:10.735Z,98347.63
2023-04-17T02:49:12.717Z,98342.54
2023-04-17T02:52:14.892Z,98351.54
2023-04-17T02:55:16.847Z,98346.27
2023-04-17T02:58:18.739Z,98352.13
2023-04-17T03:01:21.940Z,98360.23
2023-04-17T03:04:24.022Z,98361.39
2023-04-17T03:07:26.955Z,98361.60
2023-04-17T03:10:28.840Z,98365.19
2023-04-17T03:13:32.786Z,98369.39
2023-04-17T03:16:34.462Z,98364.52
2023-04-17T03:19:39.793Z,98367.11
2023-04-17T03:22:41.463Z,98365.98
2023-04-17T03:25:43.324Z,98367.70
2023-04-17T03:28:45.269Z,98371.97
2023-04-17T03:31:46.981Z,98369.13
2023-04-17T03:34:48.940Z,98366.63
2023-04-17T03:37:50.841Z,98364.74
2023-04-17T03:40:52.610Z,98366.41
2023-04-17T03:43:54.839Z,98372.63
2023-04-17T03:46:56.496Z,98380.02
2023-04-17T03:49:58.266Z,98382.93
2023-04-17T03:53:00.381Z,98390.35
2023-04-17T03:56:03.102Z,98385.98
2023-04-17T03:59:08.286Z,98387.55
2023-04-17T04:02:14.185Z,98395.52
2023-04-17T04:05:16.224Z,98396.42
2023-04-17T04:08:18.172Z,98400.94
2023-04-17T04:11:22.824Z,98397.36
2023-04-17T04:14:24.747Z,98401.09
2023-04-17T04:17:27.070Z,98399.95
2023-04-17T04:20:30.109Z,98397.17
2023-04-17T04:23:42.232Z,98396.59
2023-04-17T04:26:49.056Z,98398.59
2023-04-17T04:29:51.466Z,98404.66
2023-04-17T04:32:55.489Z,98407.43
2023-04-17T04:36:00.756Z,98407.77
2023-04-17T04:39:06.182Z,98414.34
2023-04-17T04:42:10.605Z,98410.61
2023-04-17T04:45:30.869Z,98416.83
2023-04-17T04:48:33.528Z,98416.84
2023-04-17T04:51:35.511Z,98416.77
2023-04-17T04:54:39.195Z,98412.15
2023-04-17T04:57:41.024Z,98414.52
2023-04-17T05:00:43.086Z,98417.44
2023-04-17T05:03:47.868Z,98408.73
2023-04-17T05:06:56.477Z,98417.86
2023-04-17T05:09:58.305Z,98418.26
2023-04-17T05:13:00.665Z,98420.38
2023-04-17T05:16:02.570Z,98428.55
2023-04-17T05:19:04.674Z,98433.90
2023-04-17T05:22:19.608Z,98432.41
2023-04-17T05:25:33.394Z,98437.29
2023-04-17T05:28:35.538Z,98434.01
2023-04-17T05:31:38.146Z,98436.52
2023-04-17T05:34:43.014Z,98430.39
2023-04-17T05:37:45.153Z,98436.69
2023-04-17T05:40:46.897Z,98432.22
2023-04-17T05:43:48.602Z,98433.42
2023-04-17T05:46:50.339Z,98433.73
2023-04-17T05:49:56.773Z,98434.30
2023-04-17T05:52:58.770Z,98432.34
2023-04-17T05:56:02.820Z,98436.29
2023-04-17T05:59:05.644Z,98439.69
2023-04-17T06:02:08.792Z,98441.42
2023-04-17T06:05:10.965Z,98442.08
2023-04-17T06:08:12.906Z,98442.41
2023-04-17T06:11:15.183Z,98444.80
2023-04-17T06:14:17.943Z,98448.49
2023-04-17T06:17:19.665Z,98447.63
2023-04-17T06:20:22.850Z,98446.94
2023-04-17T06:23:24.676Z,98445.06
2023-04-17T06:26:26.489Z,98446.24
2023-04-17T06:29:28.224Z,98444.37
2023-04-17T06:32:30.193Z,98444.07
2023-04-17T06:35:32.361Z,98446.67
2023-04-17T06:38:41.867Z,98442.27
2023-04-17T06:41:43.796Z,98445.36
2023-04-17T06:44:46.724Z,98449.48
2023-04-17T06:47:48.465Z,98450.97
2023-04-17T06:50:53.132Z,98453.89
2023-04-17T06:53:55.543Z,98457.11
2023-04-17T06:56:57.330Z,98457.12
2023-04-17T06:59:59.200Z,98459.78
2023-04-17T07:03:01.824Z,98461.05
2023-04-17T07:06:03.746Z,98465.52
2023-04-17T07:09:05.578Z,98462.06
2023-04-17T07:12:07.280Z,98468.12
2023-04-17T07:15:09.399Z,98474.34
2023-04-17T07:18:11.210Z,98479.91
2023-04-17T07:21:12.999Z,98479.35
2023-04-17T07:24:15.094Z,98484.61
2023-04-17T07:27:17.410Z,98485.64
2023-04-17T07:30:19.083Z,98484.92
2023-04-17T07:33:21.191Z,98490.44
2023-04-17T07:36:23.524Z,98497.27
2023-04-17T07:39:27.932Z,98500.90
2023-04-17T07:42:29.716Z,98504.75
2023-04-17T07:45:32.864Z,98510.65
2023-04-17T07:48:34.747Z,98509.14
2023-04-17T07:51:37.734Z,98513.45
2023-04-17T07:54:39.513Z,98508.73
2023-04-17T07:57:42.026Z,98512.89
2023-04-17T08:00:44.000Z,98509.15
2023-04-17T08:03:48.397Z,98505.05
2023-04-17T08:06:50.603Z,98508.40
2023-04-17T08:09:52.447Z,98510.58
2023-04-17T08:12:55.925Z,98516.06
2023-04-17T08:15:58.960Z,98518.86
2023-04-17T08:19:01.990Z,98520.41
2023-04-17T08:22:05.595Z,98523.23
2023-04-17T08:25:08.871Z,98522.63
2023-04-17T08:28:10.645Z,98524.38
2023-04-17T08:31:13.293Z,98521.77
2023-04-17T08:34:16.502Z,98520.04
2023-04-17T08:37:22.058Z,98519.70
2023-04-17T08:40:25.624Z,98517.86
2023-04-17T08:43:28.877Z,98518.81
2023-04-17T08:46:31.630Z,98523.96
2023-04-17T08:49:35.078Z,98525.88
2023-04-17T08:52:44.996Z,98524.65
2023-04-17T08:55:48.830Z,98518.70
2023-04-17T08:58:50.585Z,98514.33
2023-04-17T09:02:07.267Z,98516.17
2023-04-17T09:05:20.492Z,98513.07
2023-04-17T09:08:25.167Z,98508.28
2023-04-17T09:11:27.538Z,98507.38
2023-04-17T09:14:30.039Z,98507.20
2023-04-17T09:17:34.025Z,98509.63
2023-04-17T09:20:49.003Z,98511.88
2023-04-17T09:23:55.975Z,98515.20
2023-04-17T09:27:21.582Z,98518.86
2023-04-17T09:30:26.362Z,98518.11
2023-04-17T09:33:28.151Z,98518.73
2023-04-17T09:36:32.491Z,98516.80
2023-04-17T09:39:34.329Z,98522.12
2023-04-17T09:42:59.251Z,98514.66
2023-04-17T09:46:02.771Z,98514.91
2023-04-17T09:49:07.522Z,98504.58
2023-04-17T09:52:09.528Z,98512.17
2023-04-17T09:55:12.377Z,98509.58
2023-04-17T09:58:15.859Z,98509.24
2023-04-17T10:01:19.359Z,98506.35
2023-04-17T10:04:22.842Z,98504.56
2023-04-17T10:07:25.388Z,98505.90
2023-04-17T10:10:32.964Z,98504.28
2023-04-17T10:13:41.990Z,98505.64
2023-04-17T10:16:44.037Z,98504.84
2023-04-17T10:19:48.410Z,98506.86
2023-04-17T10:22:55.428Z,98504.59
2023-04-17T10:26:26.570Z,98499.05
2023-04-17T10:29:57.029Z,98495.86
2023-04-17T10:33:19.425Z,98498.72
2023-04-17T10:36:41.626Z,98496.86
2023-04-17T10:40:10.058Z,98501.38
2023-04-17T10:43:22.143Z,98499.16
2023-04-17T10:46:25.748Z,98503.59
2023-04-17T10:49:27.716Z,98502.55
2023-04-17T10:52:41.859Z,98501.28
2023-04-17T10:55:50.587Z,98501.67
2023-04-17T10:59:04.846Z,98505.11
2023-04-17T11:02:07.614Z,98501.17
2023-04-17T11:05:10.552Z,98504.54
2023-04-17T11:08:12.620Z,98502.88
2023-04-17T11:11:16.811Z,98506.47
2023-04-17T11:14:22.835Z,98511.09
2023-04-17T11:17:25.267Z,98503.36
2023-04-17T11:20:31.762Z,98506.27
2023-04-17T11:23:33.930Z,98509.06
2023-04-17T11:26:43.332Z,98508.52
2023-04-17T11:29:45.450Z,98511.09
2023-04-17T11:32:47.379Z,98511.88
2023-04-17T11:35:49.180Z,98510.33
2023-04-17T11:38:53.871Z,98507.42
2023-04-17T11:41:57.484Z,98507.19
2023-04-17T11:45:04.613Z,98507.36
2023-04-17T11:48:09.031Z,98502.23
2023-04-17T11:51:12.876Z,98502.33
2023-04-17T11:54:34.129Z,98501.17
2023-04-17T11:57:44.997Z,98505.32
2023-04-17T12:01:03.807Z,98500.37
2023-04-17T12:04:20.171Z,98501.06
2023-04-17T12:07:25.896Z,98502.09
2023-04-17T12:10:37.807Z,98504.98
2023-04-17T12:13:39.597Z,98504.83
2023-04-17T12:16:41.488Z,98504.54
2023-04-17T12:19:44.652Z,98504.84
2023-04-17T12:22:46.474Z,98506.77
2023-04-17T12:25:48.259Z,98499.47
2023-04-17T12:28:50.677Z,98500.71
2023-04-17T12:31:52.529Z,98506.94
2023-04-17T12:34:55.545Z,98505.09
2023-04-17T12:37:57.324Z,98509.25
2023-04-17T12:40:59.425Z,98507.27
2023-04-17T12:44:02.949Z,98507.48
2023-04-17T12:47:05.292Z,98504.67
2023-04-17T12:50:07.352Z,98505.91
2023-04-17T12:53:10.878Z,98503.19
2023-04-17T12:56:12.640Z,98501.96
2023-04-17T12:59:14.365Z,98500.48
2023-04-17T13:02:17.973Z,98502.80
2023-04-17T13:05:19.800Z,98502.48
2023-04-17T13:08:21.648Z,98500.50
2023-04-17T13:11:23.483Z,98502.48
2023-04-17T13:14:25.302Z,98504.45
2023-04-17T13:17:27.319Z,98499.68
2023-04-17T13:20:29.495Z,98497.91
2023-04-17T13:23:31.362Z,98496.20
2023-04-17T13:26:33.191Z,98492.41
2023-04-17T13:29:35.432Z,98492.44
2023-04-17T13:32:38.877Z,98492.95
2023-04-17T13:35:40.823Z,98492.70
2023-04-17T13:38:42.587Z,98491.95
2023-04-17T13:41:45.105Z,98488.59
2023-04-17T13:44:46.969Z,98486.08
2023-04-17T13:47:48.811Z,98490.42
2023-04-17T13:50:50.609Z,98489.75
2023-04-17T13:53:52.792Z,98491.50
2023-04-17T13:56:54.603Z,98491.30
2023-04-17T13:59:56.253Z,98491.64
2023-04-17T14:02:59.516Z,98496.79
2023-04-17T14:06:01.579Z,98495.38
2023-04-17T14:09:03.460Z,98499.34
2023-04-17T14:12:05.607Z,98498.55
2023-04-17T14:15:07.700Z,98502.23
2023-04-17T14:18:09.726Z,98507.66
2023-04-17T14:21:11.764Z,98503.91
2023-04-17T14:24:13.501Z,98505.66
2023-04-17T14:27:15.887Z,98507.00
2023-04-17T14:30:17.950Z,98503.61
2023-04-17T14:33:35.222Z,98505.73
2023-04-17T14:36:52.179Z,98507.19
2023-04-17T14:40:09.165Z,98510.33
2023-04-17T14:43:11.132Z,98509.65
2023-04-17T14:46:12.966Z,98510.02
2023-04-17T14:49:15.203Z,98510.60
2023-04-17T14:52:16.718Z,98507.40
2023-04-17T14:55:18.538Z,98509.23
2023-04-17T14:58:20.138Z,98506.95
2023-04-17T15:01:21.786Z,98508.99
2023-04-17T15:04:23.515Z,98508.84
2023-04-17T15:07:25.266Z,98506.78
2023-04-17T15:10:28.689Z,98506.88
2023-04-17T15:13:31.963Z,98506.42
2023-04-17T15:16:33.667Z,98508.58
2023-04-17T15:19:35.303Z,98505.90
2023-04-17T15:22:36.907Z,98505.27
2023-04-17T15:25:38.572Z,98503.06
2023-04-17T15:28:40.519Z,98507.48
2023-04-17T15:31:42.252Z,98507.17
2023-04-17T15:34:48.057Z,98506.17
2023-04-17T15:37:49.728Z,98505.15
2023-04-17T15:40:51.518Z,98505.09
2023-04-17T15:43:53.118Z,98502.98
2023-04-17T15:46:54.848Z,98505.42
2023-04-17T15:49:56.502Z,98501.97
2023-04-17T15:52:58.092Z,98504.99
2023-04-17T15:56:00.013Z,98504.52
2023-04-17T15:59:01.934Z,98503.76
2023-04-17T16:02:03.777Z,98505.75
2023-04-17T16:05:05.895Z,98502.39
2023-04-17T16:08:07.514Z,98504.38
2023-04-17T16:11:10.314Z,98504.80
2023-04-17T16:14:11.892Z,98504.88
2023-04-17T16:17:13.530Z,98505.48
2023-04-17T16:20:15.388Z,98500.76
2023-04-17T16:23:17.409Z,98501.48
2023-04-17T16:26:19.021Z,98504.88
2023-04-17T16:29:21.089Z,98505.61
2023-04-17T16:32:24.326Z,98506.73
2023-04-17T16:35:26.191Z,98511.88
2023-04-17T16:38:27.762Z,98511.66
2023-04-17T16:41:30.928Z,98509.45
2023-04-17T16:44:32.898Z,98512.70
2023-04-17T16:47:34.738Z,98513.34
2023-04-17T16:50:36.833Z,98518.34
2023-04-17T16:53:40.599Z,98517.86
2023-04-17T16:56:59.559Z,98519.99
2023-04-17T17:00:03.329Z,98523.25
2023-04-17T17:03:05.855Z,98526.25
2023-04-17T17:06:10.730Z,98527.44
2023-04-17T17:09:12.546Z,98534.08
2023-04-17T17:12:14.368Z,98532.35
2023-04-17T17:15:16.395Z,98532.84
2023-04-17T17:18:17.976Z,98533.71
2023-04-17T17:21:20.296Z,98538.52
2023-04-17T17:24:22.335Z,98540.11
2023-04-17T17:27:24.404Z,98542.95
2023-04-17T17:30:26.610Z,98548.96
2023-04-17T17:33:29.556Z,98555.13
2023-04-17T17:36:32.768Z,98553.97
2023-04-17T17:39:35.023Z,98555.57
2023-04-17T17:42:36.748Z,98557.86
2023-04-17T17:45:38.865Z,98556.29
2023-04-17T17:48:41.583Z,98562.52
2023-04-17T17:51:43.809Z,98561.20
2023-04-17T17:54:45.304Z,98563.20
2023-04-17T17:57:49.472Z,98565.27
2023-04-17T18:00:51.510Z,98564.23
2023-04-17T18:03:53.688Z,98565.73
2023-04-17T18:06:55.736Z,98568.09
2023-04-17T18:09:57.342Z,98571.17
2023-04-17T18:12:58.936Z,98574.88
2023-04-17T18:16:03.453Z,98576.63
2023-04-17T18:19:06.074Z,98574.42
2023-04-17T18:22:08.428Z,98576.71
2023-04-17T18:25:10.567Z,98584.59
2023-04-17T18:28:12.199Z,98583.41
2023-04-17T18:31:14.965Z,98579.55
2023-04-17T18:34:18.180Z,98583.89
2023-04-17T18:37:19.785Z,98587.29
2023-04-17T18:40:21.329Z,98589.27
2023-04-17T18:43:22.952Z,98589.42
2023-04-17T18:46:26.339Z,98583.28
2023-04-17T18:49:28.126Z,98585.72
2023-04-17T18:52:29.716Z,98591.00
2023-04-17T18:55:31.821Z,98586.37
2023-04-17T18:58:33.396Z,98585.41
2023-04-17T19:01:35.040Z,98588.41
2023-04-17T19:04:36.603Z,98588.80
2023-04-17T19:07:38.238Z,98592.90
2023-04-17T19:10:40.271Z,98594.63
2023-04-17T19:13:44.333Z,98595.18
2023-04-17T19:16:47.317Z,98596.38
2023-04-17T19:19:49.068Z,98595.98
2023-04-17T19:22:50.646Z,98594.23
2023-04-17T19:25:55.881Z,98594.55
2023-04-17T19:28:58.353Z,98595.75
2023-04-17T19:31:59.978Z,98593.23
2023-04-17T19:35:01.818Z,98596.05
2023-04-17T19:38:03.581Z,98593.52
2023-04-17T19:41:17.218Z,98597.70
2023-04-17T19:44:18.873Z,98593.08
2023-04-17T19:47:20.473Z,98593.38
2023-04-17T19:50:24.626Z,98589.69
2023-04-17T19:53:36.365Z,98591.02
2023-04-17T19:56:38.694Z,98588.59
2023-04-17T19:59:40.412Z,98589.45
2023-04-17T20:02:42.256Z,98587.02
2023-04-17T20:05:44.097Z,98584.48
2023-04-17T20:08:45.786Z,98588.42
2023-04-17T20:11:47.501Z,98586.46
2023-04-17T20:14:51.550Z,98583.70
2023-04-17T20:17:56.489Z,98581.19
2023-04-17T20:21:00.508Z,98579.86
2023-04-17T20:24:02.170Z,98579.30
2023-04-17T20:27:03.766Z,98578.98
2023-04-17T20:30:06.144Z,98577.33
2023-04-17T20:33:07.903Z,98577.09
2023-04-17T20:36:11.583Z,98575.45
2023-04-17T20:39:13.989Z,98577.17
2023-04-17T20:42:15.821Z,98577.17
2023-04-17T20:45:17.462Z,98573.55
2023-04-17T20:48:19.075Z,98577.09
2023-04-17T20:51:24.393Z,98574.02
2023-04-17T20:54:26.022Z,98577.64
2023-04-17T20:57:28.190Z,98577.57
2023-04-17T21:00:29.871Z,98578.05
2023-04-17T21:03:32.368Z,98581.20
2023-04-17T21:06:34.083Z,98581.66
2023-04-17T21:09:35.630Z,98583.33
2023-04-17T21:12:37.203Z,98584.02
2023-04-17T21:15:38.863Z,98585.60
2023-04-17T21:18:40.491Z,98583.95
2023-04-17T21:21:42.145Z,98582.84
2023-04-17T21:24:43.826Z,98584.27
2023-04-17T21:27:45.398Z,98586.63
2023-04-17T21:30:47.198Z,98585.13
2023-04-17T21:33:48.991Z,98587.48
2023-04-17T21:36:53.059Z,98584.73
2023-04-17T21:39:54.747Z,98582.53
2023-04-17T21:42:56.355Z,98583.33
2023-04-17T21:45:58.203Z,98578.12
2023-04-17T21:49:00.206Z,98574.73
2023-04-17T21:52:01.812Z,98579.77
2023-04-17T21:55:05.215Z,98577.48
2023-04-17T21:58:06.882Z,98576.16
2023-04-17T22:01:08.639Z,98578.36
2023-04-17T22:04:10.288Z,98579.21
2023-04-17T22:07:12.046Z,98581.12
2023-04-17T22:10:13.916Z,98581.11
2023-04-17T22:13:15.744Z,98578.20
2023-04-17T22:16:17.475Z,98574.97
2023-04-17T22:19:19.202Z,98574.19
2023-04-17T22:22:21.307Z,98574.04
2023-04-17T22:25:22.923Z,98574.73
2023-04-17T22:28:25.108Z,98574.34
2023-04-17T22:31:26.732Z,98576.15
2023-04-17T22:34:28.350Z,98575.29
2023-04-17T22:37:29.880Z,98574.42
2023-04-17T22:40:31.513Z,98577.33
2023-04-17T22:43:33.097Z,98577.56
2023-04-17T22:46:34.977Z,98578.20
2023-04-17T22:49:40.001Z,98576.79
2023-04-17T22:52:41.615Z,98575.44
2023-04-17T22:55:43.211Z,98575.52
2023-04-17T22:58:44.802Z,98578.83
2023-04-17T23:01:46.376Z,98576.46
2023-04-17T23:04:48.050Z,98575.98
2023-04-17T23:07:49.926Z,98569.05
2023-04-17T23:10:59.230Z,98572.99
2023-04-17T23:14:01.279Z,98568.04
2023-04-17T23:17:02.866Z,98565.14
2023-04-17T23:20:04.930Z,98562.60
2023-04-17T23:23:06.508Z,98564.42
2023-04-17T23:26:08.139Z,98561.05
2023-04-17T23:29:09.748Z,98562.30
2023-04-17T23:32:11.440Z,98556.46
2023-04-17T23:35:13.283Z,98554.73
2023-04-17T23:38:15.250Z,98556.39
2023-04-17T23:41:17.153Z,98558.04
2023-04-17T23:44:18.791Z,98559.22
2023-04-17T23:47:20.491Z,98559.30
2023-04-17T23:50:22.111Z,98560.71
2023-04-17T23:53:23.718Z,98554.42
2023-04-17T23:56:25.399Z,98554.50
2023-04-17T23:59:27.024Z,98548.98
